Time;durP1;ratioP1;P1;durP2;ratioP2;P2;SDS_P1;SDS_P2;PMS_P1;PMS_P2;Temp;Humidity;BMP_temperature;BMP_pressure;BME280_temperature;BME280_humidity;BME280_pressure;Samples;Min_cycle;Max_cycle;Signal;HPM_P1;HPM_P2
2023/01/07 07:01:57;;;;;;;0.80;0.70;;;;;;;;;;10680758;27;20031;-84
2023/01/07 07:18:19;;;;;;;2.40;1.00;;;;;;;;;;10678769;27;20031;-85
2023/01/07 07:24:07;;;;;;;1.70;0.90;;;;;;;;;;10463441;28;20033;-85
2023/01/07 07:29:18;;;;;;;1.60;0.90;;;;;;;;;;10461735;28;20041;-85
2023/01/07 07:40:48;;;;;;;1.67;1.17;;;;;;;;;;10460707;28;20026;-85
2023/01/07 07:46:02;;;;;;;1.52;0.82;;;;;;;;;;10460199;28;20450;-85
2023/01/07 07:52:00;;;;;;;1.55;0.90;;;;;;;;;;10497617;27;20557;-85
2023/01/07 07:57:03;;;;;;;2.08;0.70;;;;;;;;;;10656281;27;20043;-85
2023/01/07 08:02:14;;;;;;;3.38;1.38;;;;;;;;;;10658904;27;20034;-83
2023/01/07 08:07:45;;;;;;;0.75;0.70;;;;;;;;;;10639785;27;20032;-86
2023/01/07 08:12:54;;;;;;;10.65;1.25;;;;;;;;;;10631617;27;20046;-82
2023/01/07 08:18:09;;;;;;;5.93;0.98;;;;;;;;;;10636936;27;20122;-84
2023/01/07 08:23:18;;;;;;;1.65;0.80;;;;;;;;;;10628857;27;20144;-85
2023/01/07 08:29:01;;;;;;;2.90;0.80;;;;;;;;;;10626758;27;20023;-84
2023/01/07 08:39:53;;;;;;;1.60;1.00;;;;;;;;;;10643278;27;20411;-83
2023/01/07 08:44:54;;;;;;;1.98;1.15;;;;;;;;;;10579215;27;20046;-83
2023/01/07 08:49:59;;;;;;;3.25;1.95;;;;;;;;;;10644193;27;20106;-84
2023/01/07 08:55:01;;;;;;;2.75;1.63;;;;;;;;;;10625303;27;20593;-84
2023/01/07 09:00:06;;;;;;;3.38;1.73;;;;;;;;;;10625041;27;20015;-85
2023/01/07 09:05:08;;;;;;;12.82;9.57;;;;;;;;;;10629342;27;20027;-82
2023/01/07 09:15:59;;;;;;;10.70;8.13;;;;;;;;;;10643500;27;20370;-84
2023/01/07 09:21:00;;;;;;;7.60;5.90;;;;;;;;;;10625713;27;20624;-83
2023/01/07 09:26:04;;;;;;;;;;;;;;;;;;10625870;27;20444;-83
2023/01/07 09:31:21;;;;;;;4.90;3.20;;;;;;;;;;10630855;27;19903;-84
2023/01/07 09:36:22;;;;;;;4.47;2.88;;;;;;;;;;10631962;27;20019;-85
2023/01/07 09:41:24;;;;;;;;;;;;;;;;;;10639802;27;20100;-85
2023/01/07 09:46:54;;;;;;;5.13;3.90;;;;;;;;;;10653211;27;19902;-85
2023/01/07 09:52:51;;;;;;;2.77;1.80;;;;;;;;;;10673230;27;20060;-85
2023/01/07 09:58:02;;;;;;;2.33;1.27;;;;;;;;;;10624168;27;20031;-84
2023/01/07 10:03:42;;;;;;;3.42;1.50;;;;;;;;;;10634298;27;20047;-85
2023/01/07 10:09:00;;;;;;;1.88;1.23;;;;;;;;;;10620670;27;20026;-85
2023/01/07 10:14:24;;;;;;;1.92;1.40;;;;;;;;;;10645585;27;20413;-85
2023/01/07 10:19:46;;;;;;;2.20;1.50;;;;;;;;;;10640862;27;20083;-85
2023/01/07 10:25:10;;;;;;;;;;;;;;;;;;10632635;27;20072;-85
2023/01/07 10:30:19;;;;;;;2.83;1.15;;;;;;;;;;10638194;27;19953;-84
2023/01/07 10:35:24;;;;;;;3.22;1.10;;;;;;;;;;10626508;27;20108;-85
2023/01/07 10:40:57;;;;;;;2.30;1.35;;;;;;;;;;10638502;27;20027;-84
2023/01/07 10:52:01;;;;;;;2.35;1.20;;;;;;;;;;10659537;27;20038;-85
2023/01/07 10:57:15;;;;;;;1.45;1.00;;;;;;;;;;10553066;28;20032;-84
2023/01/07 11:02:21;;;;;;;4.18;1.60;;;;;;;;;;10530853;28;20052;-83
2023/01/07 11:07:50;;;;;;;1.88;1.20;;;;;;;;;;10554317;28;20031;-83
2023/01/07 11:13:14;;;;;;;2.20;1.23;;;;;;;;;;10506438;28;20050;-84
2023/01/07 11:18:32;;;;;;;2.42;1.35;;;;;;;;;;10476205;28;20054;-83
2023/01/07 11:34:59;;;;;;;2.63;1.48;;;;;;;;;;10638612;28;20023;-85
2023/01/07 11:40:46;;;;;;;2.85;1.58;;;;;;;;;;10651741;27;20054;-83
2023/01/07 11:57:45;;;;;;;2.65;1.40;;;;;;;;;;10646896;27;20027;-85
2023/01/07 12:03:15;;;;;;;2.35;1.60;;;;;;;;;;10627911;27;20114;-86
2023/01/07 12:14:28;;;;;;;3.03;1.42;;;;;;;;;;10647298;27;20027;-85
2023/01/07 12:19:57;;;;;;;2.28;1.50;;;;;;;;;;10647304;27;20035;-86
2023/01/07 12:25:19;;;;;;;2.00;1.30;;;;;;;;;;10647996;27;20027;-84
2023/01/07 12:30:30;;;;;;;2.75;1.58;;;;;;;;;;10631680;27;20032;-83
2023/01/07 12:35:33;;;;;;;2.50;1.95;;;;;;;;;;10629129;27;20048;-83
2023/01/07 12:40:40;;;;;;;3.92;2.47;;;;;;;;;;10630495;27;20136;-85
2023/01/07 12:45:44;;;;;;;1.70;1.40;;;;;;;;;;10627201;27;20027;-83
2023/01/07 12:50:47;;;;;;;4.28;1.40;;;;;;;;;;10515075;22;20056;-77
2023/01/07 12:55:58;;;;;;;2.45;1.48;;;;;;;;;;10464493;28;20115;-79
2023/01/07 13:07:16;;;;;;;2.13;1.20;;;;;;;;;;10467530;28;20017;-81
2023/01/07 13:12:46;;;;;;;2.03;1.30;;;;;;;;;;10469322;28;20021;-80
2023/01/07 13:17:49;;;;;;;1.77;1.30;;;;;;;;;;10449522;28;20021;-80
2023/01/07 13:22:54;;;;;;;1.48;1.20;;;;;;;;;;10448204;28;20372;-81
2023/01/07 13:27:58;;;;;;;1.73;1.00;;;;;;;;;;10447483;28;20086;-81
2023/01/07 13:33:05;;;;;;;2.42;1.52;;;;;;;;;;10447404;28;20025;-82
2023/01/07 13:38:25;;;;;;;1.73;1.20;;;;;;;;;;10449675;28;20032;-82
2023/01/07 13:43:29;;;;;;;2.38;1.20;;;;;;;;;;10448363;28;20029;-81
2023/01/07 13:48:33;;;;;;;1.88;1.38;;;;;;;;;;10447701;28;20120;-82
2023/01/07 13:53:34;;;;;;;2.00;1.23;;;;;;;;;;10447719;28;20053;-81
2023/01/07 13:58:48;;;;;;;1.65;1.48;;;;;;;;;;10447235;28;20049;-81
2023/01/07 14:03:53;;;;;;;1.30;1.08;;;;;;;;;;10446978;28;20032;-79
2023/01/07 14:09:12;;;;;;;2.53;1.75;;;;;;;;;;10447616;28;20083;-81
2023/01/07 14:14:26;;;;;;;1.73;1.08;;;;;;;;;;10446986;28;20047;-81
2023/01/07 14:19:33;;;;;;;2.72;1.30;;;;;;;;;;10446024;28;20067;-81
2023/01/07 14:24:51;;;;;;;4.25;2.78;;;;;;;;;;10446741;28;20419;-81
2023/01/07 14:29:53;;;;;;;2.78;1.50;;;;;;;;;;10445373;28;20029;-81
2023/01/07 14:35:05;;;;;;;3.00;1.70;;;;;;;;;;10445523;28;20032;-81
2023/01/07 14:40:25;;;;;;;1.63;1.13;;;;;;;;;;10445716;28;20119;-80
2023/01/07 14:45:41;;;;;;;1.60;1.20;;;;;;;;;;10448613;28;20064;-81
2023/01/07 14:50:48;;;;;;;1.80;1.10;;;;;;;;;;10445306;28;20068;-81
2023/01/07 14:56:02;;;;;;;2.58;1.30;;;;;;;;;;10445114;28;20150;-81
2023/01/07 15:01:22;;;;;;;2.60;1.67;;;;;;;;;;10445574;28;20039;-81
2023/01/07 15:06:25;;;;;;;1.80;1.30;;;;;;;;;;10444952;28;20109;-81
2023/01/07 15:16:48;;;;;;;2.30;1.40;;;;;;;;;;10472685;28;20088;-82
2023/01/07 15:21:49;;;;;;;2.15;1.60;;;;;;;;;;10452687;28;20036;-80
2023/01/07 15:27:02;;;;;;;2.03;1.35;;;;;;;;;;10453889;28;20052;-80
2023/01/07 15:32:03;;;;;;;2.03;1.40;;;;;;;;;;10472213;28;20426;-82
2023/01/07 15:37:05;;;;;;;2.00;1.60;;;;;;;;;;10454611;28;20029;-81
2023/01/07 15:42:12;;;;;;;3.22;1.60;;;;;;;;;;10452997;28;20118;-80
2023/01/07 15:47:32;;;;;;;1.73;1.38;;;;;;;;;;10455425;28;20364;-79
2023/01/07 15:52:33;;;;;;;2.20;1.60;;;;;;;;;;10466106;28;20033;-81
2023/01/07 15:57:36;;;;;;;2.38;1.65;;;;;;;;;;10454260;28;20032;-82
2023/01/07 16:02:38;;;;;;;2.42;1.42;;;;;;;;;;10451217;28;20086;-82
2023/01/07 16:07:43;;;;;;;3.10;2.08;;;;;;;;;;10450695;28;20390;-81
2023/01/07 16:12:47;;;;;;;2.95;1.67;;;;;;;;;;10468890;28;20119;-80
2023/01/07 16:17:50;;;;;;;1.98;1.50;;;;;;;;;;10467186;28;20021;-82
2023/01/07 16:22:55;;;;;;;2.15;1.70;;;;;;;;;;10450578;28;20036;-82
2023/01/07 16:27:56;;;;;;;3.90;2.47;;;;;;;;;;10475137;28;20025;-81
2023/01/07 16:32:57;;;;;;;;;;;;;;;;;;10456173;28;20037;-81
2023/01/07 16:37:59;;;;;;;3.90;2.08;;;;;;;;;;10450364;28;19912;-81
2023/01/07 16:43:01;;;;;;;3.45;2.00;;;;;;;;;;10449685;28;20028;-81
2023/01/07 16:48:01;;;;;;;;;;;;;;;;;;10451285;28;20367;-82
2023/01/07 16:53:03;;;;;;;3.15;2.15;;;;;;;;;;10450531;28;19905;-81
2023/01/07 16:58:04;;;;;;;2.85;1.70;;;;;;;;;;10449559;28;20029;-81
2023/01/07 17:03:05;;;;;;;2.90;2.15;;;;;;;;;;10450564;28;20032;-81
2023/01/07 17:08:07;;;;;;;3.38;2.47;;;;;;;;;;10449689;28;20032;-82
2023/01/07 17:13:14;;;;;;;4.32;2.88;;;;;;;;;;10449061;28;20025;-81
2023/01/07 17:18:15;;;;;;;2.50;1.90;;;;;;;;;;10448847;28;20029;-81
2023/01/07 17:23:22;;;;;;;3.95;2.30;;;;;;;;;;10450097;28;20498;-81
2023/01/07 17:28:25;;;;;;;3.22;2.40;;;;;;;;;;10448814;28;20036;-81
2023/01/07 17:33:26;;;;;;;3.35;2.40;;;;;;;;;;10449414;28;20099;-81
2023/01/07 17:38:28;;;;;;;2.75;1.60;;;;;;;;;;10450569;28;20064;-81
2023/01/07 17:43:38;;;;;;;3.13;2.28;;;;;;;;;;10477772;28;20048;-81
2023/01/07 17:48:39;;;;;;;2.85;1.88;;;;;;;;;;10451453;28;20162;-81
2023/01/07 17:53:44;;;;;;;2.70;2.13;;;;;;;;;;10448393;28;20102;-81
2023/01/07 17:58:51;;;;;;;2.65;1.98;;;;;;;;;;10467379;28;20039;-81
2023/01/07 18:03:52;;;;;;;2.28;1.55;;;;;;;;;;10448360;28;20032;-81
2023/01/07 18:08:55;;;;;;;;;;;;;;;;;;10446459;28;20029;-81
2023/01/07 18:13:56;;;;;;;2.83;1.75;;;;;;;;;;10447286;28;19940;-81
2023/01/07 18:19:12;;;;;;;2.70;2.38;;;;;;;;;;10448851;28;20087;-82
2023/01/07 18:24:17;;;;;;;2.53;1.80;;;;;;;;;;10448640;28;20037;-82
2023/01/07 18:29:18;;;;;;;3.30;2.22;;;;;;;;;;10448807;28;20024;-80
2023/01/07 18:34:19;;;;;;;2.60;2.28;;;;;;;;;;10447421;28;20029;-80
2023/01/07 18:39:20;;;;;;;3.72;2.88;;;;;;;;;;10448659;28;20394;-83
2023/01/07 18:44:21;;;;;;;;;;;;;;;;;;10448442;28;20041;-82
2023/01/07 18:55:34;;;;;;;3.75;2.15;;;;;;;;;;10485077;28;20480;-86
2023/01/07 19:01:07;;;;;;;3.33;2.10;;;;;;;;;;10439554;28;20037;-86
2023/01/07 19:46:26;;;;;;;4.38;2.88;;;;;;;;;;10279236;28;20047;-86
